createdAt,value
2018-05-15T00:00:35.106Z,99.99
2018-05-15T00:01:35.087Z,99.99
2018-05-15T00:02:35.038Z,99.99
2018-05-15T00:03:35.004Z,99.99
2018-05-15T00:04:34.960Z,99.99
2018-05-15T00:05:34.953Z,99.99
2018-05-15T00:06:34.899Z,99.99
2018-05-15T00:07:34.862Z,99.99
2018-05-15T00:08:34.831Z,99.99
2018-05-15T00:09:34.803Z,99.99
2018-05-15T00:10:34.772Z,99.99
2018-05-15T00:11:34.712Z,99.99
2018-05-15T00:12:34.693Z,99.99
2018-05-15T00:13:34.647Z,98.79
2018-05-15T00:14:34.603Z,99.65
2018-05-15T00:15:34.574Z,99.08
2018-05-15T00:16:34.524Z,98.51
2018-05-15T00:17:34.502Z,99.99
2018-05-15T00:18:34.451Z,99.99
2018-05-15T00:19:34.425Z,99.99
2018-05-15T00:20:34.416Z,99.99
2018-05-15T00:21:34.347Z,99.99
2018-05-15T00:22:34.311Z,99.99
2018-05-15T00:23:34.329Z,99.99
2018-05-15T00:24:34.271Z,99.99
2018-05-15T00:25:34.212Z,99.99
2018-05-15T00:26:34.172Z,98.51
2018-05-15T00:27:34.161Z,99.22
2018-05-15T00:28:34.107Z,97.70
2018-05-15T00:29:34.079Z,97.51
2018-05-15T00:30:34.016Z,99.99
2018-05-15T00:31:34.005Z,97.70
2018-05-15T00:32:33.944Z,99.99
2018-05-15T00:33:33.946Z,99.99
2018-05-15T00:34:33.861Z,98.18
2018-05-15T00:35:33.829Z,96.46
2018-05-15T00:36:33.799Z,94.17
2018-05-15T00:37:33.753Z,99.99
2018-05-15T00:38:33.729Z,95.27
2018-05-15T00:39:33.679Z,94.89
2018-05-15T00:40:33.665Z,96.12
2018-05-15T00:41:33.631Z,99.46
2018-05-15T00:42:33.575Z,98.18
2018-05-15T00:43:33.544Z,99.99
2018-05-15T00:44:33.494Z,99.99
2018-05-15T00:45:33.471Z,99.99
2018-05-15T00:46:33.440Z,99.99
2018-05-15T00:47:33.395Z,99.99
2018-05-15T00:48:33.342Z,99.99
2018-05-15T00:49:33.314Z,99.99
2018-05-15T00:50:33.267Z,99.99
2018-05-15T00:51:33.240Z,99.99
2018-05-15T00:52:33.197Z,99.99
2018-05-15T00:53:33.168Z,99.99
2018-05-15T00:54:33.125Z,99.99
2018-05-15T00:55:33.091Z,99.99
2018-05-15T00:56:33.089Z,99.99
2018-05-15T00:57:33.013Z,99.99
2018-05-15T00:58:32.994Z,99.99
2018-05-15T00:59:32.942Z,99.99
2018-05-15T01:00:32.928Z,99.99
2018-05-15T01:01:32.882Z,99.99
2018-05-15T01:02:32.833Z,99.99
2018-05-15T01:03:32.800Z,99.99
2018-05-15T01:04:32.758Z,99.99
2018-05-15T01:05:32.716Z,99.99
2018-05-15T01:06:32.686Z,99.99
2018-05-15T01:07:32.649Z,99.99
2018-05-15T01:08:32.635Z,99.03
2018-05-15T01:09:32.575Z,99.98
2018-05-15T01:10:32.537Z,99.99
2018-05-15T01:11:32.490Z,99.32
2018-05-15T01:12:32.460Z,99.99
2018-05-15T01:13:32.459Z,99.65
2018-05-15T01:14:32.388Z,99.99
2018-05-15T01:15:32.347Z,99.99
2018-05-15T01:16:32.307Z,99.99
2018-05-15T01:17:32.287Z,99.99
2018-05-15T01:18:32.271Z,99.99
2018-05-15T01:19:32.200Z,99.99
2018-05-15T01:20:32.246Z,99.99
2018-05-15T01:21:32.119Z,99.99
2018-05-15T01:22:32.097Z,99.99
2018-05-15T01:23:32.050Z,99.99
2018-05-15T01:24:32.028Z,99.99
2018-05-15T01:25:31.979Z,99.99
2018-05-15T01:26:31.934Z,99.99
2018-05-15T01:27:31.904Z,99.99
2018-05-15T01:28:31.876Z,99.99
2018-05-15T01:29:31.822Z,99.99
2018-05-15T01:30:31.822Z,99.99
2018-05-15T01:31:31.778Z,99.99
2018-05-15T01:32:31.733Z,99.99
2018-05-15T01:33:31.702Z,99.99
2018-05-15T01:34:31.633Z,99.99
2018-05-15T01:35:31.611Z,99.99
2018-05-15T01:36:31.566Z,99.32
2018-05-15T01:37:31.531Z,97.22
2018-05-15T01:38:31.508Z,99.99
2018-05-15T01:39:31.449Z,95.94
2018-05-15T01:40:31.414Z,98.41
2018-05-15T01:41:31.371Z,95.56
2018-05-15T01:42:31.341Z,99.93
2018-05-15T01:43:31.295Z,99.27
2018-05-15T01:44:31.290Z,94.56
2018-05-15T01:45:31.837Z,86.57
2018-05-15T01:46:31.190Z,85.37
2018-05-15T01:47:31.156Z,87.27
2018-05-15T01:48:31.111Z,89.27
2018-05-15T01:49:31.060Z,91.37
2018-05-15T01:50:31.058Z,93.27
2018-05-15T01:51:30.983Z,96.12
2018-05-15T01:52:30.966Z,97.65
2018-05-15T01:53:30.919Z,99.79
2018-05-15T01:54:30.882Z,99.99
2018-05-15T01:55:30.847Z,97.27
2018-05-15T01:56:30.812Z,97.17
2018-05-15T01:57:30.805Z,98.22
2018-05-15T01:58:30.753Z,96.51
2018-05-15T01:59:30.709Z,94.79
2018-05-15T02:00:30.675Z,94.70
2018-05-15T02:01:30.643Z,94.98
2018-05-15T02:02:30.579Z,93.18
2018-05-15T02:03:30.557Z,94.42
2018-05-15T02:04:30.505Z,95.08
2018-05-15T02:05:30.478Z,94.42
2018-05-15T02:06:30.447Z,91.13
2018-05-15T02:07:30.401Z,80.95
2018-05-15T02:08:30.386Z,82.19
2018-05-15T02:09:30.336Z,84.09
2018-05-15T02:10:30.323Z,85.71
2018-05-15T02:11:30.293Z,81.14
2018-05-15T02:12:30.222Z,82.57
2018-05-15T02:13:30.187Z,78.19
2018-05-15T02:14:30.153Z,80.66
2018-05-15T02:15:30.140Z,87.32
2018-05-15T02:16:30.850Z,88.04
2018-05-15T02:17:30.095Z,85.56
2018-05-15T02:18:29.992Z,86.04
2018-05-15T02:19:29.958Z,88.42
2018-05-15T02:20:29.934Z,91.61
2018-05-15T02:21:29.889Z,87.32
2018-05-15T02:22:29.841Z,84.76
2018-05-15T02:23:29.824Z,90.61
2018-05-15T02:24:29.782Z,93.18
2018-05-15T02:25:29.742Z,93.27
2018-05-15T02:26:29.689Z,94.89
2018-05-15T02:27:29.693Z,97.55
2018-05-15T02:28:29.617Z,89.89
2018-05-15T02:29:29.575Z,87.42
2018-05-15T02:30:29.645Z,84.47
2018-05-15T02:31:29.514Z,87.61
2018-05-15T02:32:29.464Z,87.80
2018-05-15T02:33:29.433Z,88.85
2018-05-15T02:34:29.383Z,91.61
2018-05-15T02:35:29.407Z,95.17
2018-05-15T02:36:29.321Z,91.27
2018-05-15T02:37:29.308Z,90.61
2018-05-15T02:38:29.280Z,94.13
2018-05-15T02:39:29.206Z,92.60
2018-05-15T02:40:29.197Z,92.56
2018-05-15T02:41:29.148Z,90.84
2018-05-15T02:42:29.082Z,92.65
2018-05-15T02:43:29.079Z,92.27
2018-05-15T02:44:29.020Z,85.42
2018-05-15T02:45:29.004Z,89.80
2018-05-15T02:46:28.987Z,89.70
2018-05-15T02:47:28.906Z,89.89
2018-05-15T02:48:28.849Z,91.03
2018-05-15T02:49:28.833Z,87.90
2018-05-15T02:50:28.780Z,84.47
2018-05-15T02:51:28.748Z,74.26
2018-05-15T02:52:28.730Z,77.34
2018-05-15T02:53:28.661Z,70.26
2018-05-15T02:54:28.649Z,70.36
2018-05-15T02:55:28.584Z,68.59
2018-05-15T02:56:28.546Z,75.62
2018-05-15T02:57:28.571Z,83.42
2018-05-15T02:58:28.500Z,84.19
2018-05-15T02:59:28.465Z,87.42
2018-05-15T03:00:28.405Z,84.56
2018-05-15T03:01:28.377Z,83.52
2018-05-15T03:02:28.869Z,85.33
2018-05-15T03:03:28.317Z,88.94
2018-05-15T03:04:28.272Z,90.66
2018-05-15T03:05:28.217Z,87.80
2018-05-15T03:06:28.168Z,88.28
2018-05-15T03:07:28.142Z,88.46
2018-05-15T03:08:28.123Z,89.51
2018-05-15T03:09:28.072Z,88.56
2018-05-15T03:10:28.052Z,91.13
2018-05-15T03:11:28.015Z,90.47
2018-05-15T03:12:27.939Z,90.28
2018-05-15T03:13:27.925Z,90.84
2018-05-15T03:14:27.895Z,90.28
2018-05-15T03:15:27.866Z,92.84
2018-05-15T03:16:27.785Z,92.08
2018-05-15T03:17:27.789Z,85.61
2018-05-15T03:18:27.722Z,90.75
2018-05-15T03:19:27.703Z,77.49
2018-05-15T03:20:27.635Z,72.26
2018-05-15T03:21:27.589Z,67.98
2018-05-15T03:22:27.574Z,74.44
2018-05-15T03:23:27.517Z,59.39
2018-05-15T03:24:27.534Z,66.36
2018-05-15T03:25:27.439Z,70.36
2018-05-15T03:26:27.452Z,72.55
2018-05-15T03:27:27.389Z,72.74
2018-05-15T03:28:27.371Z,82.38
2018-05-15T03:29:27.317Z,72.45
2018-05-15T03:30:27.275Z,72.58
2018-05-15T03:31:27.257Z,69.12
2018-05-15T03:32:27.211Z,78.91
2018-05-15T03:33:27.188Z,85.28
2018-05-15T03:34:27.151Z,86.24
2018-05-15T03:35:27.088Z,66.84
2018-05-15T03:36:27.092Z,58.47
2018-05-15T03:37:26.992Z,64.94
2018-05-15T03:38:26.990Z,72.64
2018-05-15T03:39:26.951Z,75.74
2018-05-15T03:40:26.905Z,61.87
2018-05-15T03:41:26.834Z,57.40
2018-05-15T03:42:26.810Z,53.12
2018-05-15T03:43:27.363Z,52.36
2018-05-15T03:44:26.730Z,47.39
2018-05-15T03:45:26.733Z,43.02
2018-05-15T03:46:26.631Z,39.61
2018-05-15T03:47:26.617Z,42.55
2018-05-15T03:48:26.626Z,44.73
2018-05-15T03:49:26.550Z,45.02
2018-05-15T03:50:26.516Z,39.04
2018-05-15T03:51:26.497Z,42.93
2018-05-15T03:52:26.445Z,34.00
2018-05-15T03:53:26.399Z,30.30
2018-05-15T03:54:26.342Z,34.00
2018-05-15T03:55:26.345Z,37.33
2018-05-15T03:56:26.278Z,35.24
2018-05-15T03:57:26.259Z,36.47
2018-05-15T03:58:26.222Z,35.42
2018-05-15T03:59:26.176Z,30.20
2018-05-15T04:00:26.101Z,32.10
2018-05-15T04:01:26.096Z,34.95
2018-05-15T04:02:26.052Z,30.49
2018-05-15T04:03:26.072Z,26.31
2018-05-15T04:04:25.963Z,23.08
2018-05-15T04:05:25.928Z,23.27
2018-05-15T04:06:25.919Z,27.64
2018-05-15T04:07:25.848Z,31.05
2018-05-15T04:08:25.794Z,33.05
2018-05-15T04:09:25.770Z,35.71
2018-05-15T04:10:25.772Z,38.46
2018-05-15T04:11:25.676Z,39.89
2018-05-15T04:12:25.659Z,40.75
2018-05-15T04:13:25.637Z,35.24
2018-05-15T04:14:25.590Z,31.15
2018-05-15T04:15:25.569Z,28.88
2018-05-15T04:16:25.491Z,26.03
2018-05-15T04:17:25.550Z,25.64
2018-05-15T04:18:25.440Z,29.53
2018-05-15T04:19:25.395Z,28.78
2018-05-15T04:20:25.372Z,28.22
2018-05-15T04:21:25.304Z,28.70
2018-05-15T04:22:25.270Z,33.64
2018-05-15T04:23:25.269Z,34.21
2018-05-15T04:24:25.253Z,37.63
2018-05-15T04:25:25.141Z,39.81
2018-05-15T04:26:25.111Z,33.73
2018-05-15T04:27:25.075Z,34.59
2018-05-15T04:28:25.070Z,34.21
2018-05-15T04:29:25.025Z,33.07
2018-05-15T04:30:24.968Z,34.97
2018-05-15T04:31:24.926Z,36.40
2018-05-15T04:32:24.903Z,37.35
2018-05-15T04:33:24.840Z,39.62
2018-05-15T04:34:24.818Z,41.34
2018-05-15T04:35:24.806Z,40.77
2018-05-15T04:36:24.718Z,44.28
2018-05-15T04:37:24.708Z,48.56
2018-05-15T04:38:24.659Z,50.37
2018-05-15T04:39:26.463Z,52.93
2018-05-15T04:40:24.570Z,47.33
2018-05-15T04:41:24.556Z,42.10
2018-05-15T04:42:24.506Z,44.28
2018-05-15T04:43:24.467Z,47.34
2018-05-15T04:44:24.461Z,47.71
2018-05-15T04:45:24.400Z,48.18
2018-05-15T04:46:24.351Z,46.49
2018-05-15T04:47:24.363Z,50.01
2018-05-15T04:48:24.270Z,56.00
2018-05-15T04:49:24.262Z,59.61
2018-05-15T04:50:24.202Z,54.96
2018-05-15T04:51:24.197Z,59.52
2018-05-15T04:52:24.124Z,62.08
2018-05-15T04:53:24.079Z,64.84
2018-05-15T04:54:24.057Z,67.63
2018-05-15T04:55:24.032Z,67.35
2018-05-15T04:56:23.976Z,67.54
2018-05-15T04:57:23.931Z,67.82
2018-05-15T04:58:23.918Z,75.15
2018-05-15T04:59:23.884Z,76.29
2018-05-15T05:00:23.829Z,80.80
2018-05-15T05:01:23.790Z,82.80
2018-05-15T05:02:23.741Z,82.23
2018-05-15T05:03:23.695Z,85.85
2018-05-15T05:04:23.679Z,91.99
2018-05-15T05:05:23.620Z,95.12
2018-05-15T05:06:23.595Z,98.32
2018-05-15T05:07:23.585Z,99.99
2018-05-15T05:08:23.534Z,99.99
2018-05-15T05:09:23.546Z,99.99
2018-05-15T05:10:23.482Z,99.99
2018-05-15T05:11:23.459Z,99.99
2018-05-15T05:12:23.440Z,99.99
2018-05-15T05:13:23.377Z,99.99
2018-05-15T05:14:23.319Z,99.99
2018-05-15T05:15:23.355Z,99.99
2018-05-15T05:16:23.261Z,99.99
2018-05-15T05:17:23.194Z,99.99
2018-05-15T05:18:23.170Z,97.28
2018-05-15T05:19:23.119Z,90.44
2018-05-15T05:20:23.128Z,89.86
2018-05-15T05:21:23.056Z,93.45
2018-05-15T05:22:23.050Z,98.33
2018-05-15T05:23:23.029Z,99.99
2018-05-15T05:24:23.005Z,99.99
2018-05-15T05:25:22.921Z,99.99
2018-05-15T05:26:22.875Z,99.99
2018-05-15T05:27:22.918Z,99.99
2018-05-15T05:28:22.811Z,99.99
2018-05-15T05:29:22.792Z,99.99
2018-05-15T05:30:22.766Z,99.99
2018-05-15T05:31:22.724Z,99.99
2018-05-15T05:32:22.669Z,99.99
2018-05-15T05:33:22.770Z,99.99
2018-05-15T05:34:22.620Z,99.99
2018-05-15T05:35:22.612Z,99.99
2018-05-15T05:36:22.595Z,99.99
2018-05-15T05:37:22.497Z,99.99
2018-05-15T05:38:22.482Z,99.99
2018-05-15T05:39:22.449Z,99.99
2018-05-15T05:40:22.414Z,99.99
2018-05-15T05:41:22.384Z,99.99
2018-05-15T05:42:22.338Z,99.99
2018-05-15T05:43:22.301Z,99.99
2018-05-15T05:44:22.281Z,99.99
2018-05-15T05:45:22.261Z,99.99
2018-05-15T05:46:22.235Z,99.99
2018-05-15T05:47:22.170Z,99.99
2018-05-15T05:48:22.134Z,99.99
2018-05-15T05:49:22.110Z,99.99
2018-05-15T05:50:22.067Z,99.99
2018-05-15T05:51:22.058Z,99.99
2018-05-15T05:52:22.008Z,99.99
2018-05-15T05:53:21.981Z,99.99
2018-05-15T05:54:21.948Z,99.99
2018-05-15T05:55:21.909Z,99.99
2018-05-15T05:56:21.888Z,99.99
2018-05-15T05:57:21.836Z,99.99
2018-05-15T05:58:21.794Z,99.99
2018-05-15T05:59:21.761Z,99.99
2018-05-15T06:00:21.728Z,99.99
2018-05-15T06:01:21.728Z,99.99
2018-05-15T06:02:21.670Z,99.99
2018-05-15T06:03:21.636Z,99.99
2018-05-15T06:04:21.597Z,99.99
2018-05-15T06:05:21.558Z,99.99
2018-05-15T06:06:23.492Z,99.99
2018-05-15T06:07:21.623Z,99.99
2018-05-15T06:08:21.496Z,99.99
2018-05-15T06:09:21.422Z,99.99
2018-05-15T06:10:21.417Z,99.99
2018-05-15T06:11:21.395Z,99.99
2018-05-15T06:12:21.325Z,99.99
2018-05-15T06:13:21.314Z,93.93
2018-05-15T06:14:21.360Z,99.99
2018-05-15T06:15:21.257Z,96.32
2018-05-15T06:16:21.229Z,93.07
2018-05-15T06:17:21.216Z,97.18
2018-05-15T06:18:21.136Z,94.12
2018-05-15T06:19:21.098Z,94.21
2018-05-15T06:20:21.076Z,87.62
2018-05-15T06:21:21.114Z,91.30
2018-05-15T06:22:21.035Z,87.66
2018-05-15T06:23:20.961Z,91.49
2018-05-15T06:24:20.965Z,89.58
2018-05-15T06:25:20.930Z,88.71
2018-05-15T06:26:20.879Z,88.95
2018-05-15T06:27:20.855Z,90.29
2018-05-15T06:28:20.813Z,85.46
2018-05-15T06:29:20.791Z,96.61
2018-05-15T06:30:21.410Z,85.69
2018-05-15T06:31:20.724Z,83.78
2018-05-15T06:32:20.740Z,81.67
2018-05-15T06:33:20.716Z,88.18
2018-05-15T06:34:20.607Z,84.55
2018-05-15T06:35:20.570Z,85.98
2018-05-15T06:36:20.584Z,82.24
2018-05-15T06:37:20.506Z,82.09
2018-05-15T06:38:20.495Z,82.19
2018-05-15T06:39:20.559Z,82.90
2018-05-15T06:40:20.444Z,80.99
2018-05-15T06:41:20.414Z,84.00
2018-05-15T06:42:20.355Z,79.30
2018-05-15T06:43:20.313Z,77.29
2018-05-15T06:44:20.310Z,78.92
2018-05-15T06:45:20.266Z,79.21
2018-05-15T06:46:20.221Z,74.06
2018-05-15T06:47:20.189Z,74.51
2018-05-15T06:48:20.189Z,73.26
2018-05-15T06:49:20.143Z,78.44
2018-05-15T06:50:20.108Z,79.68
2018-05-15T06:51:20.062Z,79.49
2018-05-15T06:52:20.033Z,77.29
2018-05-15T06:53:19.995Z,76.65
2018-05-15T06:54:19.989Z,76.71
2018-05-15T06:55:19.942Z,76.17
2018-05-15T06:56:19.928Z,75.21
2018-05-15T06:57:19.876Z,74.06
2018-05-15T06:58:19.933Z,74.06
2018-05-15T06:59:19.818Z,76.27
2018-05-15T07:00:19.798Z,75.60
2018-05-15T07:01:19.836Z,76.12
2018-05-15T07:02:19.748Z,76.02
2018-05-15T07:03:19.736Z,74.29
2018-05-15T07:04:19.688Z,74.83
2018-05-15T07:05:19.650Z,78.57
2018-05-15T07:06:19.682Z,77.23
2018-05-15T07:07:19.562Z,76.84
2018-05-15T07:08:19.612Z,72.66
2018-05-15T07:09:19.524Z,70.17
2018-05-15T07:10:19.484Z,69.53
2018-05-15T07:11:19.444Z,67.90
2018-05-15T07:12:19.449Z,64.40
2018-05-15T07:13:19.437Z,62.19
2018-05-15T07:14:19.366Z,62.96
2018-05-15T07:15:19.349Z,62.83
2018-05-15T07:16:19.302Z,63.86
2018-05-15T07:17:19.273Z,66.39
2018-05-15T07:18:19.261Z,63.54
2018-05-15T07:19:19.203Z,65.08
2018-05-15T07:20:19.184Z,64.98
2018-05-15T07:21:19.159Z,60.90
2018-05-15T07:22:19.128Z,59.87
2018-05-15T07:23:19.108Z,59.36
2018-05-15T07:24:19.104Z,60.75
2018-05-15T07:25:19.062Z,62.54
2018-05-15T07:26:19.053Z,62.71
2018-05-15T07:27:19.092Z,66.07
2018-05-15T07:28:18.969Z,69.27
2018-05-15T07:29:18.971Z,71.10
2018-05-15T07:30:18.934Z,69.24
2018-05-15T07:31:18.881Z,71.70
2018-05-15T07:32:18.852Z,69.74
2018-05-15T07:33:18.829Z,72.08
2018-05-15T07:34:18.792Z,70.99
2018-05-15T07:35:18.784Z,71.89
2018-05-15T07:36:18.757Z,71.70
2018-05-15T07:37:18.723Z,72.31
2018-05-15T07:38:18.709Z,71.73
2018-05-15T07:39:18.669Z,70.97
2018-05-15T07:40:18.679Z,70.74
2018-05-15T07:41:18.618Z,72.14
2018-05-15T07:42:18.575Z,74.39
2018-05-15T07:43:18.557Z,70.80
2018-05-15T07:44:18.519Z,75.12
2018-05-15T07:45:18.515Z,72.43
2018-05-15T07:46:18.466Z,72.37
2018-05-15T07:47:18.472Z,70.97
2018-05-15T07:48:18.429Z,71.73
2018-05-15T07:49:18.385Z,69.20
2018-05-15T07:50:18.368Z,68.05
2018-05-15T07:51:18.354Z,66.93
2018-05-15T07:52:18.296Z,69.05
2018-05-15T07:53:18.284Z,69.05
2018-05-15T07:54:18.245Z,68.37
2018-05-15T07:55:18.198Z,71.98
2018-05-15T07:56:18.185Z,70.07
2018-05-15T07:57:18.167Z,69.36
2018-05-15T07:58:18.144Z,69.56
2018-05-15T07:59:18.089Z,71.41
2018-05-15T08:00:18.089Z,68.88
2018-05-15T08:01:18.095Z,71.37
2018-05-15T08:02:18.026Z,71.76
2018-05-15T08:03:17.998Z,72.72
2018-05-15T08:04:18.018Z,70.36
2018-05-15T08:05:17.919Z,71.06
2018-05-15T08:06:17.896Z,66.61
2018-05-15T08:07:17.869Z,63.76
2018-05-15T08:08:17.845Z,63.24
2018-05-15T08:09:17.822Z,59.36
2018-05-15T08:10:17.780Z,62.83
2018-05-15T08:11:17.818Z,60.68
2018-05-15T08:12:17.782Z,61.36
2018-05-15T08:13:17.705Z,60.94
2018-05-15T08:14:17.668Z,60.71
2018-05-15T08:15:17.642Z,61.07
2018-05-15T08:16:17.659Z,59.66
2018-05-15T08:17:17.585Z,61.61
2018-05-15T08:18:17.558Z,64.63
2018-05-15T08:19:17.535Z,62.41
2018-05-15T08:20:17.493Z,63.95
2018-05-15T08:21:17.497Z,66.68
2018-05-15T08:22:17.527Z,65.53
2018-05-15T08:23:17.442Z,66.39
2018-05-15T08:24:17.424Z,67.32
2018-05-15T08:25:17.382Z,68.18
2018-05-15T08:26:17.336Z,68.08
2018-05-15T08:27:17.327Z,68.47
2018-05-15T08:28:17.303Z,66.93
2018-05-15T08:29:17.259Z,67.61
2018-05-15T08:30:17.241Z,67.74
2018-05-15T08:31:17.201Z,66.58
2018-05-15T08:32:17.166Z,67.70
2018-05-15T08:33:17.141Z,67.68
2018-05-15T08:34:17.118Z,67.07
2018-05-15T08:35:17.126Z,67.54
2018-05-15T08:36:17.083Z,65.97
2018-05-15T08:37:17.061Z,64.28
2018-05-15T08:38:16.997Z,64.69
2018-05-15T08:39:16.969Z,64.15
2018-05-15T08:40:16.972Z,64.40
2018-05-15T08:41:16.916Z,63.34
2018-05-15T08:42:16.894Z,62.80
2018-05-15T08:43:16.923Z,62.60
2018-05-15T08:44:16.854Z,60.36
2018-05-15T08:45:16.821Z,61.07
2018-05-15T08:46:16.818Z,61.33
2018-05-15T08:47:16.747Z,61.23
2018-05-15T08:48:16.768Z,62.41
2018-05-15T08:49:16.709Z,61.26
2018-05-15T08:50:16.726Z,60.42
2018-05-15T08:51:16.666Z,59.40
2018-05-15T08:52:16.629Z,63.85
2018-05-15T08:53:16.622Z,60.72
2018-05-15T08:54:16.571Z,60.62
2018-05-15T08:55:16.572Z,62.54
2018-05-15T08:56:16.533Z,62.26
2018-05-15T08:57:16.486Z,63.25
2018-05-15T08:58:16.465Z,60.17
2018-05-15T08:59:16.445Z,60.97
2018-05-15T09:00:16.419Z,61.65
2018-05-15T09:01:16.415Z,62.29
2018-05-15T09:02:16.361Z,60.36
2018-05-15T09:03:16.324Z,62.96
2018-05-15T09:04:16.313Z,63.09
2018-05-15T09:05:16.280Z,62.51
2018-05-15T09:06:16.236Z,63.73
2018-05-15T09:07:16.220Z,62.96
2018-05-15T09:08:16.232Z,62.35
2018-05-15T09:09:16.178Z,62.16
2018-05-15T09:10:16.132Z,62.07
2018-05-15T09:11:16.128Z,61.52
2018-05-15T09:12:16.099Z,62.74
2018-05-15T09:13:16.108Z,62.84
2018-05-15T09:14:16.033Z,62.00
2018-05-15T09:15:16.040Z,61.07
2018-05-15T09:16:15.980Z,61.29
2018-05-15T09:17:15.958Z,62.26
2018-05-15T09:18:15.928Z,63.34
2018-05-15T09:19:16.027Z,59.17
2018-05-15T09:20:15.907Z,59.05
2018-05-15T09:21:15.848Z,62.41
2018-05-15T09:22:15.806Z,63.22
2018-05-15T09:23:15.788Z,61.33
2018-05-15T09:24:15.766Z,61.84
2018-05-15T09:25:15.725Z,62.93
2018-05-15T09:26:15.719Z,62.19
2018-05-15T09:27:15.675Z,59.75
2018-05-15T09:28:15.675Z,60.42
2018-05-15T09:29:15.715Z,60.52
2018-05-15T09:30:15.578Z,61.42
2018-05-15T09:31:15.576Z,58.24
2018-05-15T09:32:15.544Z,58.63
2018-05-15T09:33:15.518Z,56.99
2018-05-15T09:34:15.470Z,58.92
2018-05-15T09:35:15.441Z,62.29
2018-05-15T09:36:15.442Z,58.05
2018-05-15T09:37:15.406Z,58.53
2018-05-15T09:38:15.352Z,61.90
2018-05-15T09:39:15.350Z,59.33
2018-05-15T09:40:15.319Z,59.33
2018-05-15T09:41:15.277Z,58.75
2018-05-15T09:42:15.248Z,57.12
2018-05-15T09:43:15.262Z,57.82
2018-05-15T09:44:15.203Z,57.31
2018-05-15T09:45:15.194Z,56.05
2018-05-15T09:46:15.144Z,54.64
2018-05-15T09:47:15.137Z,55.70
2018-05-15T09:48:15.129Z,55.35
2018-05-15T09:49:15.083Z,56.12
2018-05-15T09:50:15.128Z,57.09
2018-05-15T09:51:14.999Z,57.28
2018-05-15T09:52:15.072Z,56.35
2018-05-15T09:53:14.950Z,57.60
2018-05-15T09:54:14.925Z,58.51
2018-05-15T09:55:14.918Z,55.05
2018-05-15T09:56:14.862Z,52.26
2018-05-15T09:57:14.849Z,52.26
2018-05-15T09:58:14.803Z,53.37
2018-05-15T09:59:14.813Z,51.20
2018-05-15T10:00:14.755Z,50.84
2018-05-15T10:01:14.745Z,51.66
2018-05-15T10:02:14.737Z,51.62
2018-05-15T10:03:14.676Z,48.64
2018-05-15T10:04:14.661Z,47.31
2018-05-15T10:05:14.645Z,47.50
2018-05-15T10:06:14.611Z,48.47
2018-05-15T10:07:14.592Z,52.34
2018-05-15T10:08:14.592Z,49.39
2018-05-15T10:09:14.549Z,49.54
2018-05-15T10:10:14.527Z,48.59
2018-05-15T10:11:14.503Z,50.21
2018-05-15T10:12:14.488Z,50.79
2018-05-15T10:13:14.451Z,51.34
2018-05-15T10:14:14.465Z,53.47
2018-05-15T10:15:14.401Z,54.91
2018-05-15T10:16:14.372Z,53.08
2018-05-15T10:17:14.357Z,53.08
2018-05-15T10:18:14.315Z,54.44
2018-05-15T10:19:14.294Z,53.33
2018-05-15T10:20:14.266Z,55.45
2018-05-15T10:21:14.289Z,55.45
2018-05-15T10:22:14.211Z,55.96
2018-05-15T10:23:14.212Z,56.05
2018-05-15T10:24:14.166Z,56.15
2018-05-15T10:25:14.137Z,55.96
2018-05-15T10:26:14.209Z,55.51
2018-05-15T10:27:14.100Z,54.60
2018-05-15T10:28:14.092Z,55.10
2018-05-15T10:29:14.063Z,56.04
2018-05-15T10:30:14.055Z,55.63
2018-05-15T10:31:14.024Z,55.63
2018-05-15T10:32:14.090Z,54.65
2018-05-15T10:33:13.945Z,52.36
2018-05-15T10:34:13.922Z,52.14
2018-05-15T10:35:13.919Z,53.45
2018-05-15T10:36:13.871Z,52.05
2018-05-15T10:37:13.861Z,53.59
2018-05-15T10:38:13.836Z,52.01
2018-05-15T10:39:13.797Z,53.89
2018-05-15T10:40:13.775Z,50.33
2018-05-15T10:41:14.102Z,50.62
2018-05-15T10:42:13.720Z,51.01
2018-05-15T10:43:13.715Z,52.53
2018-05-15T10:44:13.735Z,54.87
2018-05-15T10:45:13.680Z,55.52
2018-05-15T10:46:13.663Z,52.19
2018-05-15T10:47:13.604Z,53.22
2018-05-15T10:48:13.609Z,55.57
2018-05-15T10:49:13.582Z,56.54
2018-05-15T10:50:13.599Z,56.03
2018-05-15T10:51:13.518Z,57.83
2018-05-15T10:52:13.523Z,56.70
2018-05-15T10:53:13.460Z,57.28
2018-05-15T10:54:13.502Z,56.99
2018-05-15T10:55:13.441Z,56.92
2018-05-15T10:56:13.411Z,56.57
2018-05-15T10:57:13.376Z,54.91
2018-05-15T10:58:13.353Z,52.43
2018-05-15T10:59:13.318Z,52.14
2018-05-15T11:00:13.292Z,50.91
2018-05-15T11:01:13.261Z,52.62
2018-05-15T11:02:13.235Z,50.47
2018-05-15T11:03:13.229Z,51.94
2018-05-15T11:04:13.198Z,54.47
2018-05-15T11:05:13.173Z,54.64
2018-05-15T11:06:13.164Z,56.18
2018-05-15T11:07:13.168Z,56.44
2018-05-15T11:08:13.113Z,57.98
2018-05-15T11:09:13.088Z,57.02
2018-05-15T11:10:13.061Z,58.75
2018-05-15T11:11:13.033Z,57.86
2018-05-15T11:12:13.013Z,58.40
2018-05-15T11:13:12.980Z,58.34
2018-05-15T11:14:12.950Z,59.78
2018-05-15T11:15:12.917Z,59.72
2018-05-15T11:16:12.899Z,59.75
2018-05-15T11:17:12.953Z,61.10
2018-05-15T11:18:12.866Z,61.32
2018-05-15T11:19:12.832Z,59.20
2018-05-15T11:20:12.828Z,60.13
2018-05-15T11:21:12.776Z,58.78
2018-05-15T11:22:12.760Z,57.34
2018-05-15T11:23:12.718Z,58.72
2018-05-15T11:24:12.716Z,57.92
2018-05-15T11:25:12.657Z,58.49
2018-05-15T11:26:12.634Z,58.72
2018-05-15T11:27:12.620Z,60.97
2018-05-15T11:28:12.593Z,59.75
2018-05-15T11:29:12.549Z,62.45
2018-05-15T11:30:12.536Z,61.46
2018-05-15T11:31:12.501Z,62.23
2018-05-15T11:32:12.494Z,62.80
2018-05-15T11:33:12.458Z,63.67
2018-05-15T11:34:12.427Z,62.23
2018-05-15T11:35:12.429Z,62.77
2018-05-15T11:36:12.392Z,63.25
2018-05-15T11:37:12.345Z,62.29
2018-05-15T11:38:12.313Z,63.60
2018-05-15T11:39:12.296Z,63.02
2018-05-15T11:40:12.263Z,64.66
2018-05-15T11:41:12.243Z,65.66
2018-05-15T11:42:12.219Z,67.93
2018-05-15T11:43:12.201Z,69.75
2018-05-15T11:44:12.166Z,72.44
2018-05-15T11:45:12.138Z,72.25
2018-05-15T11:46:12.096Z,71.58
2018-05-15T11:47:12.131Z,81.24
2018-05-15T11:48:12.429Z,86.96
2018-05-15T11:49:12.702Z,89.84
2018-05-15T11:50:12.800Z,99.20
2018-05-15T11:51:12.797Z,99.99
2018-05-15T11:52:12.545Z,99.99
2018-05-15T11:53:12.768Z,99.99
2018-05-15T11:54:11.873Z,99.99
2018-05-15T11:55:11.848Z,99.99
2018-05-15T11:56:11.854Z,99.99
2018-05-15T11:57:11.797Z,99.99
2018-05-15T11:58:11.838Z,87.95
2018-05-15T11:59:11.741Z,88.85
2018-05-15T12:00:11.707Z,78.63
2018-05-15T12:01:11.694Z,80.41
2018-05-15T12:02:11.638Z,68.45
2018-05-15T12:03:11.628Z,69.96
2018-05-15T12:04:11.668Z,68.55
2018-05-15T12:05:12.045Z,69.42
2018-05-15T12:06:11.529Z,70.20
2018-05-15T12:07:11.487Z,70.17
2018-05-15T12:08:11.560Z,69.04
2018-05-15T12:09:11.455Z,68.77
2018-05-15T12:10:11.417Z,78.46
2018-05-15T12:11:11.393Z,71.19
2018-05-15T12:12:11.352Z,69.64
2018-05-15T12:13:11.321Z,66.17
2018-05-15T12:14:11.325Z,70.16
2018-05-15T12:15:11.336Z,64.72
2018-05-15T12:16:11.319Z,66.97
2018-05-15T12:17:11.244Z,72.13
2018-05-15T12:18:11.206Z,70.20
2018-05-15T12:19:11.183Z,68.59
2018-05-15T12:20:11.145Z,71.06
2018-05-15T12:21:11.237Z,61.57
2018-05-15T12:22:11.112Z,64.79
2018-05-15T12:23:11.072Z,65.69
2018-05-15T12:24:11.117Z,65.14
2018-05-15T12:25:11.029Z,68.82
2018-05-15T12:26:11.003Z,64.89
2018-05-15T12:27:11.019Z,65.75
2018-05-15T12:28:10.993Z,60.51
2018-05-15T12:29:10.949Z,59.28
2018-05-15T12:30:10.896Z,60.57
2018-05-15T12:31:10.882Z,61.44
2018-05-15T12:32:10.869Z,61.89
2018-05-15T12:33:10.845Z,59.11
2018-05-15T12:34:10.847Z,57.95
2018-05-15T12:35:10.805Z,58.92
2018-05-15T12:36:10.798Z,57.66
2018-05-15T12:37:10.821Z,59.05
2018-05-15T12:38:10.715Z,62.08
2018-05-15T12:39:10.696Z,55.77
2018-05-15T12:40:10.675Z,58.58
2018-05-15T12:41:10.725Z,58.93
2018-05-15T12:42:10.914Z,58.02
2018-05-15T12:43:10.614Z,54.73
2018-05-15T12:44:10.614Z,51.65
2018-05-15T12:45:10.576Z,55.88
2018-05-15T12:46:10.534Z,57.23
2018-05-15T12:47:10.526Z,56.36
2018-05-15T12:48:10.530Z,55.56
2018-05-15T12:49:10.467Z,54.87
2018-05-15T12:50:10.440Z,52.50
2018-05-15T12:51:10.416Z,56.03
2018-05-15T12:52:10.397Z,54.53